createdAt,value
2017-10-11T00:00:13.506Z,0
2017-10-11T00:01:15.160Z,0
2017-10-11T00:02:16.808Z,0
2017-10-11T00:03:18.465Z,0
2017-10-11T00:04:20.120Z,0
2017-10-11T00:05:21.782Z,0
2017-10-11T00:06:23.479Z,0
2017-10-11T00:07:25.127Z,0
2017-10-11T00:08:26.781Z,0
2017-10-11T00:09:28.440Z,0
2017-10-11T00:10:30.080Z,0
2017-10-11T00:11:31.739Z,0
2017-10-11T00:12:33.397Z,0
2017-10-11T00:13:35.048Z,0
2017-10-11T00:14:36.711Z,0
2017-10-11T00:15:38.363Z,0
2017-10-11T00:16:40.020Z,0
2017-10-11T00:17:41.680Z,0
2017-10-11T00:18:43.330Z,0
2017-10-11T00:19:44.988Z,0
2017-10-11T00:20:46.652Z,0
2017-10-11T00:21:48.306Z,0
2017-10-11T00:22:49.985Z,0
2017-10-11T00:23:51.639Z,0
2017-10-11T00:24:53.301Z,0
2017-10-11T00:25:54.974Z,0
2017-10-11T00:26:56.645Z,0
2017-10-11T00:27:58.287Z,0
2017-10-11T00:28:59.952Z,0
2017-10-11T00:30:01.597Z,0
2017-10-11T00:31:03.252Z,0
2017-10-11T00:32:04.916Z,0
2017-10-11T00:33:06.562Z,0
2017-10-11T00:34:08.224Z,0
2017-10-11T00:35:09.942Z,0
2017-10-11T00:36:11.608Z,0
2017-10-11T00:37:13.261Z,0
2017-10-11T00:38:14.924Z,0
2017-10-11T00:39:16.577Z,0
2017-10-11T00:40:18.220Z,0
2017-10-11T00:41:19.902Z,0
2017-10-11T00:42:21.558Z,0
2017-10-11T00:43:23.243Z,0
2017-10-11T00:44:24.905Z,0
2017-10-11T00:45:26.560Z,0
2017-10-11T00:46:28.225Z,0
2017-10-11T00:47:29.874Z,0
2017-10-11T00:48:31.529Z,0
2017-10-11T00:49:33.232Z,0
2017-10-11T00:50:34.890Z,0
2017-10-11T00:51:36.539Z,0
2017-10-11T00:52:38.202Z,0
2017-10-11T00:53:39.855Z,0
2017-10-11T00:54:41.512Z,0
2017-10-11T00:55:43.176Z,0
2017-10-11T00:56:44.826Z,0
2017-10-11T00:57:46.495Z,0
2017-10-11T00:58:48.150Z,0
2017-10-11T00:59:49.826Z,0
2017-10-11T01:00:51.469Z,0
2017-10-11T01:01:53.130Z,0
2017-10-11T01:02:54.787Z,0
2017-10-11T01:03:56.441Z,0
2017-10-11T01:04:58.092Z,0
2017-10-11T01:05:59.753Z,0
2017-10-11T01:07:01.404Z,0
2017-10-11T01:08:03.060Z,0
2017-10-11T01:09:04.712Z,0
2017-10-11T01:10:06.366Z,0
2017-10-11T01:11:08.029Z,0
2017-10-11T01:12:09.684Z,0
2017-10-11T01:13:11.334Z,0
2017-10-11T01:14:13.000Z,0
2017-10-11T01:15:14.653Z,0
2017-10-11T01:16:16.316Z,0
2017-10-11T01:17:17.975Z,0
2017-10-11T01:18:19.627Z,0
2017-10-11T01:19:21.292Z,0
2017-10-11T01:20:22.964Z,0
2017-10-11T01:21:24.620Z,0
2017-10-11T01:22:26.277Z,0
2017-10-11T01:23:27.941Z,0
2017-10-11T01:24:29.601Z,0
2017-10-11T01:25:31.258Z,0
2017-10-11T01:26:32.922Z,0
2017-10-11T01:27:34.575Z,0
2017-10-11T01:28:36.218Z,0
2017-10-11T01:29:37.881Z,0
2017-10-11T01:30:39.531Z,0
2017-10-11T01:31:41.192Z,0
2017-10-11T01:32:42.846Z,0
2017-10-11T01:33:44.499Z,0
2017-10-11T01:34:46.154Z,0
2017-10-11T01:35:47.809Z,0
2017-10-11T01:36:49.461Z,0
2017-10-11T01:37:51.126Z,0
2017-10-11T01:38:52.780Z,0
2017-10-11T01:39:54.440Z,0
2017-10-11T01:40:56.094Z,0
2017-10-11T01:41:57.780Z,0
2017-10-11T01:42:59.451Z,0
2017-10-11T01:44:01.114Z,0
2017-10-11T01:45:02.772Z,0
2017-10-11T01:46:04.429Z,0
2017-10-11T01:47:06.080Z,0
2017-10-11T01:48:07.813Z,0
2017-10-11T01:49:09.463Z,0
2017-10-11T01:50:11.121Z,0
2017-10-11T01:51:12.770Z,0
2017-10-11T01:52:14.424Z,0
2017-10-11T01:53:16.081Z,0
2017-10-11T01:54:17.741Z,0
2017-10-11T01:55:19.394Z,0
2017-10-11T02:01:47.382Z,0
2017-10-11T02:02:49.024Z,0
2017-10-11T02:04:40.835Z,0
2017-10-11T02:05:42.475Z,0
2017-10-11T02:07:34.316Z,0
2017-10-11T02:08:35.972Z,0
2017-10-11T02:09:37.623Z,0
2017-10-11T02:10:39.278Z,0
2017-10-11T02:11:40.934Z,0
2017-10-11T02:12:42.587Z,0
2017-10-11T02:13:44.241Z,0
2017-10-11T02:14:45.898Z,0
2017-10-11T02:15:47.559Z,0
2017-10-11T02:16:49.202Z,0
2017-10-11T02:17:50.873Z,0
2017-10-11T02:18:52.515Z,0
2017-10-11T02:19:54.183Z,0
2017-10-11T02:20:55.841Z,0
2017-10-11T02:21:57.505Z,0
2017-10-11T02:22:59.164Z,0
2017-10-11T02:24:00.808Z,0
2017-10-11T02:25:02.464Z,0
2017-10-11T02:26:04.119Z,0
2017-10-11T02:27:05.776Z,0
2017-10-11T02:28:07.434Z,0
2017-10-11T02:29:09.085Z,0
2017-10-11T02:30:10.742Z,0
2017-10-11T02:31:12.396Z,0
2017-10-11T02:32:14.053Z,0
2017-10-11T02:33:15.720Z,0
2017-10-11T02:34:17.375Z,0
2017-10-11T02:35:19.028Z,0
2017-10-11T02:36:20.687Z,0
2017-10-11T02:37:22.342Z,0
2017-10-11T02:38:24.003Z,0
2017-10-11T02:39:25.653Z,0
2017-10-11T02:40:27.314Z,0
2017-10-11T02:41:28.971Z,0
2017-10-11T02:42:30.622Z,0
2017-10-11T02:43:32.274Z,0
2017-10-11T02:44:33.931Z,0
2017-10-11T02:45:35.586Z,0
2017-10-11T02:46:37.237Z,0
2017-10-11T02:47:38.888Z,0
2017-10-11T02:48:40.535Z,0
2017-10-11T02:49:42.191Z,0
2017-10-11T02:50:43.853Z,0
2017-10-11T02:51:45.508Z,0
2017-10-11T02:52:47.162Z,0
2017-10-11T02:53:48.819Z,0
2017-10-11T02:54:50.483Z,0
2017-10-11T02:55:52.134Z,0
2017-10-11T02:56:53.800Z,0
2017-10-11T02:57:55.461Z,0
2017-10-11T02:58:57.120Z,0
2017-10-11T02:59:58.769Z,0
2017-10-11T03:01:00.425Z,0
2017-10-11T03:02:02.075Z,0
2017-10-11T03:03:03.724Z,0
2017-10-11T03:04:05.385Z,0
2017-10-11T03:05:07.040Z,0
2017-10-11T03:06:08.693Z,0
2017-10-11T03:07:10.348Z,0
2017-10-11T03:08:12.005Z,0
2017-10-11T03:09:13.655Z,0
2017-10-11T03:10:15.311Z,0
2017-10-11T03:11:16.968Z,0
2017-10-11T03:12:18.637Z,0
2017-10-11T03:13:20.295Z,0
2017-10-11T03:14:21.952Z,0
2017-10-11T03:15:23.644Z,0
2017-10-11T03:16:25.295Z,0
2017-10-11T03:17:26.958Z,0
2017-10-11T03:18:28.613Z,0
2017-10-11T03:19:30.275Z,0
2017-10-11T03:20:31.923Z,0
2017-10-11T03:21:33.578Z,0
2017-10-11T03:22:35.229Z,0
2017-10-11T03:23:36.896Z,0
2017-10-11T03:24:38.555Z,0
2017-10-11T03:25:40.206Z,0
2017-10-11T03:26:41.864Z,0
2017-10-11T03:27:43.525Z,0
2017-10-11T03:28:45.190Z,0
2017-10-11T03:29:46.848Z,0
2017-10-11T03:30:48.508Z,0
2017-10-11T03:31:50.158Z,0
2017-10-11T03:32:51.905Z,0
2017-10-11T03:33:53.565Z,0
2017-10-11T03:34:55.218Z,0
2017-10-11T03:35:56.881Z,0
2017-10-11T03:36:58.534Z,0
2017-10-11T03:38:00.198Z,0
2017-10-11T03:39:01.860Z,0
2017-10-11T03:40:03.529Z,0
2017-10-11T03:41:05.196Z,0
2017-10-11T03:42:06.860Z,0
2017-10-11T03:43:08.521Z,0
2017-10-11T03:44:10.180Z,0
2017-10-11T03:45:11.853Z,0
2017-10-11T03:46:13.514Z,0
2017-10-11T03:47:15.162Z,0
2017-10-11T03:48:16.820Z,0
2017-10-11T03:49:18.477Z,0
2017-10-11T03:50:20.132Z,0
2017-10-11T03:51:21.785Z,0
2017-10-11T03:52:23.468Z,0
2017-10-11T03:53:25.118Z,0
2017-10-11T03:54:26.772Z,0
2017-10-11T03:55:28.429Z,0
2017-10-11T03:56:30.082Z,0
2017-10-11T03:57:31.740Z,0
2017-10-11T03:58:33.403Z,0
2017-10-11T03:59:35.052Z,0
2017-10-11T04:00:36.707Z,0
2017-10-11T04:01:38.363Z,0
2017-10-11T04:02:40.025Z,0
2017-10-11T04:03:41.713Z,0
2017-10-11T04:04:43.422Z,0
2017-10-11T04:05:45.077Z,0
2017-10-11T04:06:46.741Z,0
2017-10-11T04:07:48.387Z,0
2017-10-11T04:08:50.041Z,0
2017-10-11T04:09:51.697Z,0
2017-10-11T04:10:53.349Z,0
2017-10-11T04:11:55.035Z,0
2017-10-11T04:12:56.690Z,0
2017-10-11T04:13:58.350Z,0
2017-10-11T04:15:00.018Z,0
2017-10-11T04:16:01.666Z,0
2017-10-11T04:17:03.323Z,0
2017-10-11T04:18:04.987Z,0
2017-10-11T04:19:06.646Z,0
2017-10-11T04:20:08.301Z,0
2017-10-11T04:21:09.959Z,0
2017-10-11T04:22:11.681Z,0
2017-10-11T04:23:13.340Z,0
2017-10-11T04:24:15.002Z,0
2017-10-11T04:25:16.652Z,0
2017-10-11T04:26:18.310Z,0
2017-10-11T04:27:19.985Z,0
2017-10-11T04:28:21.664Z,0
2017-10-11T04:29:23.348Z,0
2017-10-11T04:30:25.000Z,0
2017-10-11T04:31:26.668Z,0
2017-10-11T04:32:28.319Z,0
2017-10-11T04:33:29.984Z,0
2017-10-11T04:34:31.639Z,0
2017-10-11T04:35:33.295Z,0
2017-10-11T04:36:34.952Z,0
2017-10-11T04:37:36.602Z,0
2017-10-11T04:38:38.277Z,0
2017-10-11T04:39:39.939Z,0
2017-10-11T04:40:41.606Z,0
2017-10-11T04:41:43.263Z,0
2017-10-11T04:42:44.924Z,0
2017-10-11T04:43:46.577Z,0
2017-10-11T04:44:48.237Z,0
2017-10-11T04:45:49.899Z,0
2017-10-11T04:46:51.585Z,0
2017-10-11T04:47:53.239Z,0
2017-10-11T04:48:54.897Z,0
2017-10-11T04:49:56.556Z,0
2017-10-11T04:50:58.218Z,0
2017-10-11T04:51:59.898Z,0
2017-10-11T04:53:01.572Z,0
2017-10-11T04:54:03.226Z,0
2017-10-11T04:55:06.561Z,0
2017-10-11T04:56:07.783Z,0
2017-10-11T04:57:10.271Z,0
2017-10-11T04:58:11.934Z,0
2017-10-11T04:59:13.598Z,0
2017-10-11T05:00:15.351Z,0
2017-10-11T05:01:16.901Z,0
2017-10-11T05:02:18.554Z,0
2017-10-11T05:03:20.210Z,0
2017-10-11T05:04:21.879Z,0
2017-10-11T05:05:23.567Z,0
2017-10-11T05:06:25.221Z,0
2017-10-11T05:07:27.031Z,0
2017-10-11T05:08:28.696Z,0
2017-10-11T05:09:30.395Z,0
2017-10-11T05:10:32.052Z,0
2017-10-11T05:11:33.709Z,0
2017-10-11T05:12:35.368Z,0
2017-10-11T05:13:37.024Z,0
2017-10-11T05:14:38.682Z,0
2017-10-11T05:15:40.349Z,0
2017-10-11T05:16:43.841Z,0
2017-10-11T05:17:46.594Z,0
2017-10-11T05:18:47.517Z,0
2017-10-11T05:19:49.186Z,0
2017-10-11T05:20:50.873Z,4
2017-10-11T05:21:52.526Z,4
2017-10-11T05:22:54.176Z,0
2017-10-11T05:23:55.829Z,4
2017-10-11T05:24:57.480Z,8
2017-10-11T05:25:59.139Z,8
2017-10-11T05:27:00.793Z,8
2017-10-11T05:28:02.451Z,12
2017-10-11T05:29:04.142Z,20
2017-10-11T05:30:05.799Z,16
2017-10-11T05:31:07.462Z,24
2017-10-11T05:32:09.120Z,24
2017-10-11T05:33:10.779Z,36
2017-10-11T05:34:12.447Z,32
2017-10-11T05:35:14.124Z,36
2017-10-11T05:36:15.788Z,36
2017-10-11T05:37:17.454Z,36
2017-10-11T05:38:19.110Z,36
2017-10-11T05:39:20.784Z,44
2017-10-11T05:40:22.434Z,52
2017-10-11T05:41:24.099Z,56
2017-10-11T05:42:25.774Z,68
2017-10-11T05:43:27.611Z,76
2017-10-11T05:44:29.219Z,88
2017-10-11T05:45:30.886Z,104
2017-10-11T05:46:32.546Z,112
2017-10-11T05:47:34.216Z,128
2017-10-11T05:48:35.883Z,148
2017-10-11T05:49:37.546Z,180
2017-10-11T05:50:39.246Z,216
2017-10-11T05:51:40.933Z,244
2017-10-11T05:52:42.598Z,248
2017-10-11T05:53:44.254Z,280
2017-10-11T05:54:47.003Z,360
2017-10-11T06:01:16.978Z,764
2017-10-11T06:02:18.695Z,864
2017-10-11T06:04:10.556Z,932
2017-10-11T06:05:12.222Z,856
2017-10-11T06:06:13.891Z,880
2017-10-11T06:07:15.541Z,816
2017-10-11T06:08:17.298Z,848
2017-10-11T06:09:18.830Z,820
2017-10-11T06:10:20.483Z,768
2017-10-11T06:11:22.269Z,856
2017-10-11T06:12:23.929Z,924
2017-10-11T06:13:25.593Z,1048
2017-10-11T06:14:27.251Z,1132
2017-10-11T06:15:28.923Z,1132
2017-10-11T06:16:30.589Z,1260
2017-10-11T06:17:32.340Z,1692
2017-10-11T06:18:33.992Z,1676
2017-10-11T06:19:35.662Z,1644
2017-10-11T06:20:37.333Z,1500
2017-10-11T06:21:39.008Z,1484
2017-10-11T06:22:40.663Z,1372
2017-10-11T06:23:42.320Z,1452
2017-10-11T06:24:43.985Z,1568
2017-10-11T06:25:45.650Z,1460
2017-10-11T06:26:47.318Z,1468
2017-10-11T06:27:48.980Z,1524
2017-10-11T06:28:50.637Z,1456
2017-10-11T06:29:52.307Z,1656
2017-10-11T06:30:53.957Z,1812
2017-10-11T06:31:55.620Z,1780
2017-10-11T06:32:57.278Z,1688
2017-10-11T06:33:58.933Z,2116
2017-10-11T06:35:00.596Z,2048
2017-10-11T06:36:02.252Z,1972
2017-10-11T06:37:03.910Z,1944
2017-10-11T06:38:05.570Z,1936
2017-10-11T06:39:07.238Z,1860
2017-10-11T06:40:08.908Z,2032
2017-10-11T06:41:10.575Z,2160
2017-10-11T06:42:12.234Z,2196
2017-10-11T06:43:13.895Z,2124
2017-10-11T06:44:15.610Z,2224
2017-10-11T06:45:17.275Z,2192
2017-10-11T06:46:18.939Z,1976
2017-10-11T06:47:20.599Z,1904
2017-10-11T06:48:22.262Z,1924
2017-10-11T06:49:23.924Z,2048
2017-10-11T06:50:25.603Z,2164
2017-10-11T06:51:27.269Z,2344
2017-10-11T06:52:29.024Z,2376
2017-10-11T06:53:30.689Z,2652
2017-10-11T06:54:32.353Z,2756
2017-10-11T06:55:34.011Z,2740
2017-10-11T06:56:35.671Z,3024
2017-10-11T06:57:37.328Z,3112
2017-10-11T06:58:38.986Z,3312
2017-10-11T06:59:40.652Z,3688
2017-10-11T07:00:42.407Z,4260
2017-10-11T07:01:44.057Z,3928
2017-10-11T07:02:45.718Z,3956
2017-10-11T07:03:47.379Z,3616
2017-10-11T07:04:49.047Z,3532
2017-10-11T07:05:50.712Z,3772
2017-10-11T07:06:52.377Z,3896
2017-10-11T07:07:54.039Z,4316
2017-10-11T07:08:55.703Z,4224
2017-10-11T07:09:57.365Z,4652
2017-10-11T07:10:59.026Z,4852
2017-10-11T07:12:00.685Z,4584
2017-10-11T07:13:02.348Z,4224
2017-10-11T07:14:04.010Z,4508
2017-10-11T07:15:05.675Z,5020
2017-10-11T07:16:07.336Z,5096
2017-10-11T07:17:08.992Z,4132
2017-10-11T07:18:10.760Z,3740
2017-10-11T07:19:12.435Z,3580
2017-10-11T07:20:14.113Z,3500
2017-10-11T07:21:15.806Z,3380
2017-10-11T07:22:17.564Z,3424
2017-10-11T07:23:19.223Z,3464
2017-10-11T07:24:20.919Z,3500
2017-10-11T07:25:22.575Z,3392
2017-10-11T07:26:24.238Z,3588
2017-10-11T07:27:25.898Z,3764
2017-10-11T07:28:27.556Z,3956
2017-10-11T07:29:29.212Z,4148
2017-10-11T07:30:30.881Z,4156
2017-10-11T07:31:32.544Z,4236
2017-10-11T07:32:34.271Z,4036
2017-10-11T07:33:35.926Z,3996
2017-10-11T07:34:37.588Z,3756
2017-10-11T07:35:39.290Z,3736
2017-10-11T07:36:40.946Z,3608
2017-10-11T07:37:42.610Z,3844
2017-10-11T07:38:44.274Z,3944
2017-10-11T07:39:45.938Z,3900
2017-10-11T07:40:47.596Z,3796
2017-10-11T07:41:49.298Z,4224
2017-10-11T07:42:50.973Z,4332
2017-10-11T07:43:52.640Z,4632
2017-10-11T07:44:54.308Z,4252
2017-10-11T07:45:55.961Z,4176
2017-10-11T07:46:57.629Z,3800
2017-10-11T07:47:59.302Z,3668
2017-10-11T07:49:00.986Z,3852
2017-10-11T07:50:02.737Z,4212
2017-10-11T07:51:04.393Z,4704
2017-10-11T07:52:06.061Z,5412
2017-10-11T07:53:07.710Z,6844
2017-10-11T07:54:09.371Z,7604
2017-10-11T07:55:11.033Z,7820
2017-10-11T07:56:12.697Z,7852
2017-10-11T07:57:14.355Z,8344
2017-10-11T07:58:16.016Z,8804
2017-10-11T07:59:17.673Z,8920
2017-10-11T08:00:19.344Z,8188
2017-10-11T08:01:21.050Z,7568
2017-10-11T08:02:22.726Z,7520
2017-10-11T08:03:24.394Z,7516
2017-10-11T08:04:26.076Z,7952
2017-10-11T08:05:27.758Z,9532
2017-10-11T08:06:29.428Z,8704
2017-10-11T08:07:31.162Z,8084
2017-10-11T08:08:32.843Z,8432
2017-10-11T08:09:34.513Z,8752
2017-10-11T08:10:36.178Z,9028
2017-10-11T08:11:37.886Z,9264
2017-10-11T08:12:39.559Z,9884
2017-10-11T08:13:41.216Z,10128
2017-10-11T08:14:42.878Z,10484
2017-10-11T08:15:44.577Z,9244
2017-10-11T08:16:46.251Z,8680
2017-10-11T08:17:47.906Z,8140
2017-10-11T08:18:49.572Z,9564
2017-10-11T08:19:51.227Z,8880
2017-10-11T08:20:52.975Z,7880
2017-10-11T08:21:54.639Z,8008
2017-10-11T08:22:56.522Z,7920
2017-10-11T08:23:58.303Z,7028
2017-10-11T08:24:59.948Z,6060
2017-10-11T08:26:01.621Z,5772
2017-10-11T08:27:03.322Z,6816
2017-10-11T08:28:05.045Z,7208
2017-10-11T08:29:06.721Z,7128
2017-10-11T08:30:08.379Z,7764
2017-10-11T08:31:10.038Z,8484
2017-10-11T08:32:11.746Z,8448
2017-10-11T08:33:13.408Z,7932
2017-10-11T08:34:15.096Z,8440
2017-10-11T08:35:16.788Z,8348
2017-10-11T08:36:18.464Z,8348
2017-10-11T08:37:20.123Z,9096
2017-10-11T08:38:21.780Z,10504
2017-10-11T08:39:23.470Z,10668
2017-10-11T08:40:25.194Z,10652
2017-10-11T08:41:26.866Z,10564
2017-10-11T08:42:28.523Z,12396
2017-10-11T08:43:30.192Z,12664
2017-10-11T08:44:31.854Z,12708
2017-10-11T08:45:33.516Z,12728
2017-10-11T08:46:35.192Z,11784
2017-10-11T08:47:36.889Z,11344
2017-10-11T08:48:38.559Z,10248
2017-10-11T08:49:40.228Z,9604
2017-10-11T08:50:41.893Z,8360
2017-10-11T08:51:43.550Z,8132
2017-10-11T08:52:45.234Z,7840
2017-10-11T08:53:46.901Z,7576
2017-10-11T08:54:48.572Z,7540
2017-10-11T08:55:50.235Z,7588
2017-10-11T08:56:51.933Z,6256
2017-10-11T08:57:53.591Z,5972
2017-10-11T08:58:55.257Z,5772
2017-10-11T08:59:56.923Z,5760
2017-10-11T09:00:58.590Z,5656
2017-10-11T09:02:00.257Z,5280
2017-10-11T09:03:01.934Z,5344
2017-10-11T09:04:03.602Z,4740
2017-10-11T09:05:05.256Z,5184
2017-10-11T09:06:06.927Z,5332
2017-10-11T09:07:08.587Z,4956
2017-10-11T09:08:10.318Z,4836
2017-10-11T09:09:12.073Z,5692
2017-10-11T09:10:13.753Z,6056
2017-10-11T09:11:15.458Z,5508
2017-10-11T09:12:17.172Z,4612
2017-10-11T09:13:18.849Z,4572
2017-10-11T09:14:20.601Z,4636
2017-10-11T09:15:22.275Z,5468
2017-10-11T09:16:23.936Z,5324
2017-10-11T09:17:25.621Z,4848
2017-10-11T09:18:27.286Z,4416
2017-10-11T09:19:28.949Z,4560
2017-10-11T09:20:30.611Z,4324
2017-10-11T09:21:32.318Z,4660
2017-10-11T09:22:34.020Z,4900
2017-10-11T09:23:35.681Z,5020
2017-10-11T09:24:37.354Z,5128
2017-10-11T09:25:39.016Z,5704
2017-10-11T09:26:40.674Z,5904
2017-10-11T09:27:42.342Z,6240
2017-10-11T09:28:44.022Z,7536
2017-10-11T09:29:45.705Z,8104
2017-10-11T09:30:47.365Z,8140
2017-10-11T09:31:49.025Z,7612
2017-10-11T09:32:50.692Z,7304
2017-10-11T09:33:52.351Z,7536
2017-10-11T09:34:54.014Z,7464
2017-10-11T09:35:55.672Z,7140
2017-10-11T09:36:57.397Z,6652
2017-10-11T09:37:59.022Z,7476
2017-10-11T09:39:00.684Z,7540
2017-10-11T09:40:02.350Z,8556
2017-10-11T09:41:04.144Z,9228
2017-10-11T09:42:05.806Z,8496
2017-10-11T09:43:07.507Z,8856
2017-10-11T09:44:09.174Z,9560
2017-10-11T09:45:10.840Z,8516
2017-10-11T09:46:12.521Z,8672
2017-10-11T09:47:14.209Z,8608
2017-10-11T09:48:15.879Z,9332
2017-10-11T09:49:17.537Z,8680
2017-10-11T09:50:19.247Z,8084
2017-10-11T09:51:20.913Z,7560
2017-10-11T09:52:22.582Z,6888
2017-10-11T09:53:24.268Z,7148
2017-10-11T09:54:25.980Z,6760
2017-10-11T09:55:27.641Z,6192
2017-10-11T10:02:06.762Z,3232
2017-10-11T10:03:08.422Z,3472
2017-10-11T10:04:10.079Z,3660
2017-10-11T10:05:11.761Z,4060
2017-10-11T10:06:13.431Z,4240
2017-10-11T10:07:15.095Z,4532
2017-10-11T10:08:16.760Z,5472
2017-10-11T10:09:18.423Z,5832
2017-10-11T10:10:20.105Z,6188
2017-10-11T10:11:21.765Z,6548
2017-10-11T10:12:23.474Z,6448
2017-10-11T10:13:25.135Z,6220
2017-10-11T10:14:26.801Z,6652
2017-10-11T10:15:28.467Z,6944
2017-10-11T10:16:30.157Z,7272
2017-10-11T10:17:31.827Z,7624
2017-10-11T10:18:33.475Z,7364
2017-10-11T10:19:35.139Z,7500
2017-10-11T10:20:36.803Z,7776
2017-10-11T10:21:38.499Z,8228
2017-10-11T10:22:40.182Z,7648
2017-10-11T10:23:41.843Z,9404
2017-10-11T10:24:43.503Z,9176
2017-10-11T10:25:45.280Z,8424
2017-10-11T10:26:46.941Z,8596
2017-10-11T10:27:48.627Z,8048
2017-10-11T10:28:50.358Z,8736
2017-10-11T10:29:52.013Z,9400
2017-10-11T10:30:53.720Z,9252
2017-10-11T10:31:55.383Z,9228
2017-10-11T10:32:57.070Z,8108
2017-10-11T10:33:58.758Z,6436
2017-10-11T10:35:00.425Z,5508
2017-10-11T10:36:02.144Z,5108
2017-10-11T10:37:04.719Z,4660
2017-10-11T10:38:06.394Z,4120
2017-10-11T10:39:08.064Z,3924
2017-10-11T10:40:09.720Z,3900
2017-10-11T10:41:11.399Z,4436
2017-10-11T10:42:13.061Z,4996
2017-10-11T10:43:14.740Z,7284
2017-10-11T10:44:16.403Z,8880
2017-10-11T10:45:18.769Z,8580
2017-10-11T10:56:47.218Z,3604
2017-10-11T10:57:48.913Z,3468
2017-10-11T10:59:40.739Z,3320
2017-10-11T11:00:42.397Z,3188
2017-10-11T11:01:44.114Z,3128
2017-10-11T11:02:45.781Z,3088
2017-10-11T11:03:47.455Z,3020
2017-10-11T11:04:49.117Z,3172
2017-10-11T11:05:50.998Z,3524
2017-10-11T11:06:52.762Z,4084
2017-10-11T11:07:54.421Z,3712
2017-10-11T11:08:56.126Z,3288
2017-10-11T11:09:57.793Z,3312
2017-10-11T11:10:59.459Z,3228
2017-10-11T11:12:01.133Z,3248
2017-10-11T11:13:02.793Z,3420
2017-10-11T11:14:04.549Z,3648
2017-10-11T11:15:06.220Z,4060
2017-10-11T11:16:07.889Z,4276
2017-10-11T11:17:09.553Z,4564
2017-10-11T11:18:11.214Z,4752
2017-10-11T11:19:12.891Z,4984
2017-10-11T11:20:14.558Z,5248
2017-10-11T11:21:16.237Z,4824
2017-10-11T11:22:17.901Z,4656
2017-10-11T11:23:19.564Z,6376
2017-10-11T11:24:21.486Z,8308
2017-10-11T11:25:23.200Z,9840
2017-10-11T11:26:24.874Z,10736
2017-10-11T11:27:26.562Z,9976
2017-10-11T11:28:28.231Z,7596
2017-10-11T11:29:29.920Z,7908
2017-10-11T11:30:31.583Z,8420
2017-10-11T11:31:33.258Z,7716
2017-10-11T11:32:34.916Z,7224
2017-10-11T11:33:36.660Z,6712
2017-10-11T11:34:38.321Z,7484
2017-10-11T11:35:39.982Z,8052
2017-10-11T11:36:41.638Z,7936
2017-10-11T11:37:43.299Z,8324
2017-10-11T11:38:45.051Z,10212
2017-10-11T11:39:46.718Z,10796
2017-10-11T11:40:48.387Z,12224
2017-10-11T11:41:50.063Z,13160
2017-10-11T11:42:51.958Z,11092
2017-10-11T11:43:53.623Z,10628
2017-10-11T11:44:55.285Z,10316
2017-10-11T11:45:56.948Z,8448
2017-10-11T11:46:58.622Z,7288
2017-10-11T11:48:00.278Z,6692
2017-10-11T11:49:01.963Z,6796
2017-10-11T11:50:03.628Z,6084
2017-10-11T11:51:05.313Z,5956
2017-10-11T11:52:07.012Z,5936
2017-10-11T11:53:08.675Z,5676
2017-10-11T11:54:10.339Z,5216
2017-10-11T11:55:12.056Z,4792
2017-10-11T11:56:13.706Z,4512
2017-10-11T11:57:15.374Z,4396
2017-10-11T11:58:17.056Z,4360
2017-10-11T11:59:18.719Z,4712
2017-10-11T12:00:20.387Z,4900
2017-10-11T12:01:22.056Z,5040
2017-10-11T12:02:23.718Z,5668
2017-10-11T12:03:25.391Z,6104
2017-10-11T12:04:27.091Z,6036
2017-10-11T12:05:28.753Z,5556
2017-10-11T12:06:30.456Z,5212
2017-10-11T12:07:32.113Z,5172
2017-10-11T12:08:33.776Z,5196
2017-10-11T12:09:35.454Z,5496
2017-10-11T12:10:37.120Z,5472
2017-10-11T12:11:38.776Z,5456
2017-10-11T12:12:40.448Z,5972
2017-10-11T12:13:42.118Z,6328
2017-10-11T12:14:43.804Z,5636
2017-10-11T12:15:45.466Z,5304
2017-10-11T12:16:47.133Z,5232
2017-10-11T12:17:48.802Z,6768
2017-10-11T12:18:50.469Z,8164
2017-10-11T12:19:52.128Z,8708
2017-10-11T12:20:53.845Z,8100
2017-10-11T12:21:55.498Z,7612
2017-10-11T12:22:57.242Z,6596
2017-10-11T12:23:58.868Z,6136
2017-10-11T12:25:00.528Z,6560
2017-10-11T12:26:02.216Z,6944
2017-10-11T12:27:03.870Z,8128
2017-10-11T12:28:05.541Z,7264
2017-10-11T12:29:07.240Z,6600
2017-10-11T12:30:08.982Z,6296
2017-10-11T12:31:10.648Z,6176
2017-10-11T12:32:12.405Z,6356
2017-10-11T12:33:14.133Z,5680
2017-10-11T12:34:15.810Z,5344
2017-10-11T12:35:17.507Z,5300
2017-10-11T12:36:19.163Z,6084
2017-10-11T12:37:20.890Z,4796
2017-10-11T12:38:22.616Z,3924
2017-10-11T12:39:24.324Z,3808
2017-10-11T12:40:25.988Z,4448
2017-10-11T12:41:27.670Z,4984
2017-10-11T12:42:29.315Z,5004
2017-10-11T12:43:30.985Z,4596
2017-10-11T12:44:32.654Z,5044
2017-10-11T12:45:34.322Z,4992
2017-10-11T12:46:35.991Z,4780
2017-10-11T12:47:37.662Z,4536
2017-10-11T12:48:39.328Z,3876
2017-10-11T12:49:40.999Z,3504
2017-10-11T12:50:42.675Z,3500
2017-10-11T12:51:44.360Z,3424
2017-10-11T12:52:46.026Z,3456
2017-10-11T12:53:47.691Z,3504
2017-10-11T12:54:49.361Z,3384
2017-10-11T12:55:51.058Z,3516
2017-10-11T12:56:52.754Z,3244
2017-10-11T12:57:54.415Z,3100
2017-10-11T12:58:56.087Z,3376
2017-10-11T12:59:57.761Z,3736
2017-10-11T13:00:59.430Z,3292
2017-10-11T13:02:01.096Z,2976
2017-10-11T13:03:02.773Z,3048
2017-10-11T13:04:04.429Z,3468
2017-10-11T13:05:06.085Z,3972
2017-10-11T13:06:07.754Z,3520
2017-10-11T13:07:09.419Z,3260
2017-10-11T13:08:11.117Z,3328
2017-10-11T13:09:12.782Z,3164
2017-10-11T13:10:14.446Z,3292
2017-10-11T13:11:16.114Z,3356
2017-10-11T13:12:17.775Z,3188
2017-10-11T13:13:19.455Z,3012
2017-10-11T13:14:21.102Z,3004
2017-10-11T13:15:22.799Z,2960
2017-10-11T13:16:24.477Z,3144
2017-10-11T13:17:26.140Z,3240
2017-10-11T13:18:27.807Z,2976
2017-10-11T13:19:29.475Z,2864
2017-10-11T13:20:31.159Z,3080
2017-10-11T13:21:32.831Z,3372
2017-10-11T13:22:34.511Z,3704
2017-10-11T13:23:36.170Z,3736
2017-10-11T13:24:37.843Z,4548
2017-10-11T13:25:39.512Z,5448
2017-10-11T13:26:41.176Z,5060
2017-10-11T13:27:42.839Z,4828
2017-10-11T13:28:44.502Z,4488
2017-10-11T13:29:46.157Z,4652
2017-10-11T13:30:47.848Z,6236
2017-10-11T13:31:49.516Z,7672
2017-10-11T13:32:51.206Z,8500
2017-10-11T13:33:52.877Z,9016
2017-10-11T13:34:54.545Z,9776
2017-10-11T13:35:56.213Z,9176
2017-10-11T13:36:57.869Z,6824
2017-10-11T13:37:59.538Z,6548
2017-10-11T13:39:01.198Z,6964
2017-10-11T13:40:02.910Z,7096
2017-10-11T13:41:04.577Z,8412
2017-10-11T13:42:06.591Z,9032
2017-10-11T13:43:08.264Z,8708
2017-10-11T13:44:09.973Z,9000
2017-10-11T13:45:11.635Z,9196
2017-10-11T13:46:13.316Z,8848
2017-10-11T13:47:14.977Z,8100
2017-10-11T13:48:16.635Z,6836
2017-10-11T13:49:18.312Z,6952
2017-10-11T13:50:20.007Z,7932
2017-10-11T13:51:21.677Z,8176
2017-10-11T13:52:23.380Z,8676
2017-10-11T13:53:25.037Z,8760
2017-10-11T13:54:26.811Z,8256
2017-10-11T13:55:28.606Z,7656
2017-10-11T14:01:43.206Z,6768
2017-10-11T14:02:44.874Z,6760
2017-10-11T14:03:46.535Z,6376
2017-10-11T14:04:48.196Z,5984
2017-10-11T14:05:49.887Z,6208
2017-10-11T14:06:51.557Z,6196
2017-10-11T14:07:53.217Z,6288
2017-10-11T14:08:54.894Z,5832
2017-10-11T14:09:56.548Z,5080
2017-10-11T14:10:58.205Z,4936
2017-10-11T14:11:59.884Z,4668
2017-10-11T14:13:01.546Z,4288
2017-10-11T14:14:03.219Z,4452
2017-10-11T14:15:04.888Z,4224
2017-10-11T14:16:06.567Z,4044
2017-10-11T14:17:08.263Z,3944
2017-10-11T14:18:09.927Z,4152
2017-10-11T14:19:11.595Z,3600
2017-10-11T14:20:13.275Z,3632
2017-10-11T14:21:14.929Z,4184
2017-10-11T14:22:17.196Z,3960
2017-10-11T14:23:18.859Z,3956
2017-10-11T14:24:20.521Z,4132
2017-10-11T14:25:22.195Z,3912
2017-10-11T14:26:23.864Z,3756
2017-10-11T14:27:25.523Z,3952
2017-10-11T14:28:27.237Z,3724
2017-10-11T14:29:28.907Z,3832
2017-10-11T14:30:30.571Z,3560
2017-10-11T14:31:32.237Z,3376
2017-10-11T14:32:33.900Z,3632
2017-10-11T14:33:35.556Z,4504
2017-10-11T14:34:37.219Z,4408
2017-10-11T14:35:38.878Z,3444
2017-10-11T14:36:40.560Z,3100
2017-10-11T14:37:42.234Z,3756
2017-10-11T14:38:43.903Z,3820
2017-10-11T14:39:46.436Z,3596
2017-10-11T14:40:51.391Z,3964
2017-10-11T14:41:56.595Z,3464
2017-10-11T14:42:57.950Z,3248
2017-10-11T14:43:59.618Z,3552
2017-10-11T14:45:01.282Z,3248
2017-10-11T14:46:02.947Z,3492
2017-10-11T14:47:04.622Z,3488
2017-10-11T14:48:06.298Z,3492
2017-10-11T14:49:07.955Z,3968